createdAt,value
2023-02-07T00:01:30.465Z,46.10
2023-02-07T00:03:58.815Z,45.95
2023-02-07T00:06:27.651Z,46.22
2023-02-07T00:08:55.272Z,46.28
2023-02-07T00:11:23.386Z,45.70
2023-02-07T00:13:53.304Z,45.75
2023-02-07T00:16:22.385Z,45.67
2023-02-07T00:18:49.309Z,46.03
2023-02-07T00:21:18.120Z,46.15
2023-02-07T00:23:45.891Z,46.03
2023-02-07T00:26:17.410Z,45.88
2023-02-07T00:28:45.764Z,46.08
2023-02-07T00:31:15.310Z,45.97
2023-02-07T00:33:44.967Z,45.55
2023-02-07T00:36:13.901Z,46.05
2023-02-07T00:38:40.952Z,46.13
2023-02-07T00:41:08.201Z,46.05
2023-02-07T00:43:35.653Z,45.92
2023-02-07T00:46:04.218Z,45.65
2023-02-07T00:48:31.641Z,45.45
2023-02-07T00:51:00.755Z,45.90
2023-02-07T00:53:29.826Z,45.63
2023-02-07T00:55:56.927Z,45.75
2023-02-07T00:58:24.006Z,45.65
2023-02-07T01:00:51.377Z,45.80
2023-02-07T01:03:18.633Z,46.05
2023-02-07T01:05:45.741Z,45.85
2023-02-07T01:08:14.662Z,45.67
2023-02-07T01:10:43.304Z,45.78
2023-02-07T01:13:10.375Z,45.47
2023-02-07T01:15:38.763Z,45.97
2023-02-07T01:18:06.997Z,45.83
2023-02-07T01:20:34.279Z,45.50
2023-02-07T01:23:01.249Z,45.92
2023-02-07T01:25:29.517Z,45.45
2023-02-07T01:27:57.040Z,45.72
2023-02-07T01:30:24.059Z,45.55
2023-02-07T01:32:51.505Z,45.95
2023-02-07T01:35:18.466Z,45.72
2023-02-07T01:37:45.255Z,45.97
2023-02-07T01:40:13.132Z,45.67
2023-02-07T01:42:41.403Z,45.72
2023-02-07T01:45:22.345Z,45.72
2023-02-07T01:47:49.470Z,45.35
2023-02-07T01:50:17.694Z,45.50
2023-02-07T01:52:45.066Z,45.45
2023-02-07T01:55:15.390Z,45.55
2023-02-07T01:57:44.800Z,45.70
2023-02-07T02:00:14.113Z,45.85
2023-02-07T02:02:44.854Z,45.42
2023-02-07T02:05:14.341Z,45.45
2023-02-07T02:07:41.861Z,45.33
2023-02-07T02:11:20.398Z,45.38
2023-02-07T02:13:56.099Z,45.40
2023-02-07T02:16:31.366Z,45.20
2023-02-07T02:19:24.582Z,45.33
2023-02-07T02:22:28.381Z,45.45
2023-02-07T02:25:40.418Z,45.25
2023-02-07T02:28:26.369Z,45.40
2023-02-07T02:31:27.827Z,45.25
2023-02-07T02:34:00.364Z,45.25
2023-02-07T02:36:39.635Z,45.78
2023-02-07T02:39:13.263Z,45.63
2023-02-07T02:41:48.121Z,45.40
2023-02-07T02:44:20.611Z,45.45
2023-02-07T02:46:48.826Z,45.53
2023-02-07T02:49:19.312Z,45.38
2023-02-07T02:51:49.753Z,45.13
2023-02-07T02:54:31.583Z,45.25
2023-02-07T02:57:41.411Z,45.58
2023-02-07T03:00:24.085Z,45.58
2023-02-07T03:03:12.841Z,45.33
2023-02-07T03:05:49.333Z,45.38
2023-02-07T03:08:30.401Z,45.22
2023-02-07T03:11:04.016Z,45.63
2023-02-07T03:13:36.234Z,45.22
2023-02-07T03:16:11.321Z,45.63
2023-02-07T03:18:47.746Z,45.45
2023-02-07T03:21:22.977Z,45.58
2023-02-07T03:23:52.901Z,45.63
2023-02-07T03:26:23.033Z,45.75
2023-02-07T03:28:55.131Z,45.60
2023-02-07T03:31:25.414Z,45.58
2023-02-07T03:33:59.138Z,45.35
2023-02-07T03:36:32.016Z,45.55
2023-02-07T03:38:59.308Z,45.53
2023-02-07T03:41:33.036Z,45.50
2023-02-07T03:44:06.864Z,45.45
2023-02-07T03:46:36.850Z,45.55
2023-02-07T03:49:04.202Z,45.42
2023-02-07T03:51:32.483Z,45.55
2023-02-07T03:53:59.403Z,45.38
2023-02-07T03:56:26.492Z,45.10
2023-02-07T03:58:53.629Z,45.42
2023-02-07T04:01:20.542Z,45.40
2023-02-07T04:03:47.417Z,45.42
2023-02-07T04:06:14.514Z,45.05
2023-02-07T04:08:42.997Z,45.47
2023-02-07T04:11:09.856Z,45.47
2023-02-07T04:13:36.697Z,45.50
2023-02-07T04:16:05.433Z,45.53
2023-02-07T04:18:32.414Z,45.53
2023-02-07T04:21:02.888Z,45.45
2023-02-07T04:23:29.800Z,45.38
2023-02-07T04:25:58.097Z,45.45
2023-02-07T04:28:25.364Z,45.25
2023-02-07T04:30:52.751Z,45.50
2023-02-07T04:33:21.256Z,45.40
2023-02-07T04:35:54.377Z,45.38
2023-02-07T04:38:21.222Z,45.22
2023-02-07T04:40:48.049Z,45.28
2023-02-07T04:43:16.271Z,45.25
2023-02-07T04:45:43.101Z,45.47
2023-02-07T04:48:09.938Z,45.50
2023-02-07T04:50:36.770Z,45.70
2023-02-07T04:53:03.671Z,45.42
2023-02-07T04:55:30.517Z,45.33
2023-02-07T04:57:57.361Z,45.53
2023-02-07T05:00:25.686Z,45.17
2023-02-07T05:02:52.541Z,45.25
2023-02-07T05:05:19.339Z,45.42
2023-02-07T05:07:46.188Z,45.15
2023-02-07T05:10:13.091Z,44.97
2023-02-07T05:12:39.983Z,45.38
2023-02-07T05:15:07.342Z,45.33
2023-02-07T05:17:35.789Z,45.25
2023-02-07T05:20:02.696Z,45.42
2023-02-07T05:22:29.526Z,45.13
2023-02-07T05:24:56.489Z,45.38
2023-02-07T05:27:23.386Z,45.20
2023-02-07T05:29:50.252Z,45.33
2023-02-07T05:32:36.380Z,45.45
2023-02-07T05:35:05.169Z,45.58
2023-02-07T05:37:31.971Z,45.10
2023-02-07T05:39:58.856Z,45.22
2023-02-07T05:42:25.715Z,45.53
2023-02-07T05:44:52.555Z,45.58
2023-02-07T05:47:19.367Z,45.63
2023-02-07T05:49:46.257Z,45.33
2023-02-07T05:52:14.664Z,45.42
2023-02-07T05:54:41.645Z,45.55
2023-02-07T05:57:08.636Z,45.42
2023-02-07T05:59:35.487Z,45.47
2023-02-07T06:02:02.308Z,45.15
2023-02-07T06:04:29.146Z,45.75
2023-02-07T06:06:55.995Z,45.80
2023-02-07T06:09:24.211Z,45.33
2023-02-07T06:11:51.059Z,45.90
2023-02-07T06:14:17.849Z,45.38
2023-02-07T06:16:44.684Z,45.40
2023-02-07T06:19:13.042Z,45.38
2023-02-07T06:21:46.449Z,45.38
2023-02-07T06:24:14.070Z,45.42
2023-02-07T06:26:42.285Z,45.80
2023-02-07T06:29:09.496Z,45.97
2023-02-07T06:31:36.332Z,46.03
2023-02-07T06:34:03.142Z,45.75
2023-02-07T06:36:29.979Z,45.95
2023-02-07T06:38:57.629Z,45.75
2023-02-07T06:41:24.705Z,45.95
2023-02-07T06:43:52.872Z,46.13
2023-02-07T06:46:19.993Z,45.85
2023-02-07T06:48:46.864Z,45.88
2023-02-07T06:51:13.730Z,46.17
2023-02-07T06:53:40.590Z,45.90
2023-02-07T06:56:08.041Z,46.10
2023-02-07T06:58:34.892Z,46.10
2023-02-07T07:01:04.029Z,46.22
2023-02-07T07:03:30.883Z,46.10
2023-02-07T07:05:58.347Z,46.05
2023-02-07T07:08:26.061Z,46.08
2023-02-07T07:10:53.530Z,46.15
2023-02-07T07:13:20.981Z,46.00
2023-02-07T07:15:47.981Z,46.38
2023-02-07T07:18:16.239Z,46.25
2023-02-07T07:20:43.103Z,46.38
2023-02-07T07:23:09.965Z,45.97
2023-02-07T07:25:37.033Z,46.42
2023-02-07T07:28:04.579Z,46.38
2023-02-07T07:30:31.529Z,46.20
2023-02-07T07:32:58.339Z,45.85
2023-02-07T07:35:26.622Z,45.85
2023-02-07T07:37:53.442Z,46.20
2023-02-07T07:40:20.498Z,45.90
2023-02-07T07:42:47.366Z,45.95
2023-02-07T07:45:34.508Z,46.28
2023-02-07T07:48:01.413Z,46.60
2023-02-07T07:50:29.604Z,46.45
2023-02-07T07:52:56.451Z,46.42
2023-02-07T07:55:23.344Z,46.75
2023-02-07T07:57:50.162Z,46.80
2023-02-07T08:00:17.692Z,47.03
2023-02-07T08:02:44.622Z,46.88
2023-02-07T08:05:13.697Z,47.28
2023-02-07T08:07:42.467Z,47.10
2023-02-07T08:10:10.323Z,46.90
2023-02-07T08:12:37.238Z,47.03
2023-02-07T08:15:04.636Z,47.28
2023-02-07T08:17:31.568Z,47.15
2023-02-07T08:19:58.423Z,47.25
2023-02-07T08:22:25.410Z,47.15
2023-02-07T08:24:53.591Z,46.95
2023-02-07T08:27:20.478Z,47.05
2023-02-07T08:29:47.318Z,47.47
2023-02-07T08:32:14.415Z,47.63
2023-02-07T08:34:41.195Z,47.28
2023-02-07T08:37:09.046Z,47.13
2023-02-07T08:39:36.351Z,47.15
2023-02-07T08:42:05.556Z,47.55
2023-02-07T08:44:32.566Z,47.05
2023-02-07T08:46:59.848Z,47.40
2023-02-07T08:49:26.735Z,47.35
2023-02-07T08:51:53.687Z,47.28
2023-02-07T08:54:20.482Z,47.13
2023-02-07T08:56:47.309Z,47.45
2023-02-07T08:59:15.463Z,47.30
2023-02-07T09:01:42.296Z,47.30
2023-02-07T09:04:11.435Z,47.35
2023-02-07T09:06:38.993Z,47.33
2023-02-07T09:09:06.099Z,47.63
2023-02-07T09:11:33.487Z,47.58
2023-02-07T09:14:01.788Z,47.35
2023-02-07T09:16:30.551Z,47.42
2023-02-07T09:18:57.458Z,47.80
2023-02-07T09:21:24.376Z,47.22
2023-02-07T09:23:51.235Z,47.50
2023-02-07T09:26:20.013Z,47.85
2023-02-07T09:28:47.096Z,47.78
2023-02-07T09:31:16.423Z,47.50
2023-02-07T09:33:44.898Z,47.25
2023-02-07T09:36:20.206Z,47.53
2023-02-07T09:38:47.875Z,47.28
2023-02-07T09:41:27.315Z,47.50
2023-02-07T09:44:04.032Z,47.45
2023-02-07T09:46:36.358Z,47.30
2023-02-07T09:49:10.085Z,47.35
2023-02-07T09:51:37.472Z,47.25
2023-02-07T09:54:07.447Z,47.75
2023-02-07T09:56:36.444Z,47.58
2023-02-07T09:59:13.826Z,47.15
2023-02-07T10:01:44.358Z,47.03
2023-02-07T10:04:30.556Z,47.17
2023-02-07T10:06:59.751Z,47.38
2023-02-07T10:09:30.126Z,46.85
2023-02-07T10:12:05.311Z,46.85
2023-02-07T10:14:46.084Z,46.78
2023-02-07T10:17:32.365Z,47.05
2023-02-07T10:20:22.729Z,46.70
2023-02-07T10:22:59.026Z,47.13
2023-02-07T10:25:38.882Z,47.13
2023-02-07T10:28:36.652Z,46.90
2023-02-07T10:31:12.064Z,47.13
2023-02-07T10:33:43.871Z,46.97
2023-02-07T10:36:15.387Z,46.80
2023-02-07T10:38:48.844Z,46.72
2023-02-07T10:41:22.082Z,46.67
2023-02-07T10:43:49.128Z,46.92
2023-02-07T10:46:20.533Z,46.78
2023-02-07T10:48:48.525Z,47.05
2023-02-07T10:51:24.962Z,46.70
2023-02-07T10:54:04.311Z,46.88
2023-02-07T10:56:33.968Z,47.33
2023-02-07T10:59:00.925Z,46.75
2023-02-07T11:01:30.646Z,47.13
2023-02-07T11:03:58.049Z,46.97
2023-02-07T11:06:28.163Z,46.78
2023-02-07T11:09:23.516Z,46.80
2023-02-07T11:11:51.733Z,46.70
2023-02-07T11:14:27.973Z,46.67
2023-02-07T11:16:56.347Z,46.75
2023-02-07T11:19:25.836Z,46.75
2023-02-07T11:22:11.277Z,46.45
2023-02-07T11:24:38.616Z,46.53
2023-02-07T11:27:12.635Z,46.67
2023-02-07T11:29:47.614Z,46.55
2023-02-07T11:32:15.813Z,46.72
2023-02-07T11:34:46.610Z,46.67
2023-02-07T11:37:28.748Z,46.30
2023-02-07T11:39:57.136Z,46.40
2023-02-07T11:42:26.382Z,46.65
2023-02-07T11:44:53.491Z,46.55
2023-02-07T11:47:24.943Z,46.28
2023-02-07T11:49:58.139Z,46.67
2023-02-07T11:52:27.242Z,46.45
2023-02-07T11:54:58.404Z,46.50
2023-02-07T11:57:30.024Z,46.53
2023-02-07T12:00:06.909Z,46.72
2023-02-07T12:02:48.250Z,46.55
2023-02-07T12:05:20.944Z,46.78
2023-02-07T12:07:52.120Z,46.35
2023-02-07T12:10:24.096Z,45.92
2023-02-07T12:12:56.560Z,46.33
2023-02-07T12:15:28.638Z,46.30
2023-02-07T12:18:02.566Z,46.35
2023-02-07T12:20:33.521Z,46.50
2023-02-07T12:23:35.607Z,46.50
2023-02-07T12:26:02.225Z,46.65
2023-02-07T12:28:33.524Z,46.40
2023-02-07T12:31:11.750Z,46.50
2023-02-07T12:33:48.861Z,46.33
2023-02-07T12:36:22.943Z,46.20
2023-02-07T12:38:56.835Z,46.28
2023-02-07T12:41:29.478Z,46.63
2023-02-07T12:44:05.515Z,46.53
2023-02-07T12:46:41.851Z,46.42
2023-02-07T12:49:28.591Z,46.40
2023-02-07T12:52:07.949Z,46.22
2023-02-07T12:54:47.764Z,46.63
2023-02-07T12:57:21.238Z,46.97
2023-02-07T13:00:04.040Z,46.13
2023-02-07T13:02:40.571Z,46.42
2023-02-07T13:05:38.766Z,46.65
2023-02-07T13:08:17.860Z,46.83
2023-02-07T13:10:56.557Z,46.63
2023-02-07T13:13:28.190Z,46.40
2023-02-07T13:16:01.938Z,46.42
2023-02-07T13:18:40.734Z,46.33
2023-02-07T13:21:17.929Z,46.45
2023-02-07T13:23:48.006Z,46.03
2023-02-07T13:26:20.079Z,46.53
2023-02-07T13:28:52.178Z,46.55
2023-02-07T13:31:21.153Z,46.47
2023-02-07T13:33:50.142Z,46.35
2023-02-07T13:36:27.468Z,46.72
2023-02-07T13:39:07.988Z,46.15
2023-02-07T13:41:46.069Z,46.33
2023-02-07T13:44:22.683Z,46.55
2023-02-07T13:47:24.125Z,46.58
2023-02-07T13:49:58.634Z,46.45
2023-02-07T13:52:33.415Z,46.33
2023-02-07T13:55:11.206Z,46.70
2023-02-07T13:58:01.137Z,46.10
2023-02-07T14:00:30.259Z,46.28
2023-02-07T14:03:00.202Z,46.50
2023-02-07T14:05:30.763Z,46.90
2023-02-07T14:08:01.319Z,46.20
2023-02-07T14:10:45.849Z,46.43
2023-02-07T14:13:33.229Z,46.20
2023-02-07T14:16:07.662Z,46.65
2023-02-07T14:18:49.733Z,46.13
2023-02-07T14:21:41.705Z,46.00
2023-02-07T14:24:34.504Z,46.42
2023-02-07T14:27:25.346Z,46.25
2023-02-07T14:30:21.417Z,45.97
2023-02-07T14:33:13.622Z,46.22
2023-02-07T14:36:03.167Z,46.08
2023-02-07T14:38:33.844Z,46.10
2023-02-07T14:41:10.966Z,46.05
2023-02-07T14:43:56.801Z,46.55
2023-02-07T14:46:37.761Z,46.55
2023-02-07T14:49:08.144Z,46.17
2023-02-07T14:51:44.435Z,46.67
2023-02-07T14:54:18.203Z,46.40
2023-02-07T14:56:51.161Z,46.17
2023-02-07T14:59:27.048Z,46.22
2023-02-07T15:01:55.390Z,46.15
2023-02-07T15:04:22.317Z,46.13
2023-02-07T15:06:49.393Z,46.20
2023-02-07T15:09:24.843Z,46.55
2023-02-07T15:11:59.838Z,46.33
2023-02-07T15:14:34.568Z,46.65
2023-02-07T15:17:04.773Z,46.45
2023-02-07T15:19:34.513Z,46.28
2023-02-07T15:22:02.389Z,46.35
2023-02-07T15:24:39.810Z,46.45
2023-02-07T15:27:21.066Z,46.08
2023-02-07T15:29:55.026Z,46.55
2023-02-07T15:32:25.213Z,46.53
2023-02-07T15:34:52.170Z,46.58
2023-02-07T15:37:21.400Z,46.78
2023-02-07T15:39:51.970Z,47.13
2023-02-07T15:42:21.038Z,46.60
2023-02-07T15:44:50.084Z,46.33
2023-02-07T15:47:36.164Z,47.50
2023-02-07T15:50:07.875Z,46.78
2023-02-07T15:52:38.928Z,47.00
2023-02-07T15:55:17.729Z,46.67
2023-02-07T15:57:45.441Z,46.85
2023-02-07T16:00:17.951Z,46.58
2023-02-07T16:02:55.729Z,46.63
2023-02-07T16:05:26.643Z,47.00
2023-02-07T16:07:54.337Z,46.38
2023-02-07T16:10:33.257Z,46.70
2023-02-07T16:13:00.887Z,46.70
2023-02-07T16:15:29.903Z,46.60
2023-02-07T16:17:59.023Z,46.63
2023-02-07T16:20:27.674Z,46.67
2023-02-07T16:22:57.866Z,47.03
2023-02-07T16:25:29.504Z,46.88
2023-02-07T16:27:56.896Z,46.58
2023-02-07T16:30:30.158Z,46.90
2023-02-07T16:32:58.495Z,46.95
2023-02-07T16:35:26.897Z,46.42
2023-02-07T16:37:54.698Z,46.72
2023-02-07T16:40:26.669Z,46.03
2023-02-07T16:42:54.238Z,46.95
2023-02-07T16:45:23.629Z,46.67
2023-02-07T16:47:50.551Z,46.58
2023-02-07T16:50:20.739Z,46.30
2023-02-07T16:52:49.458Z,46.70
2023-02-07T16:55:16.969Z,46.33
2023-02-07T16:57:45.310Z,46.45
2023-02-07T17:00:15.620Z,46.90
2023-02-07T17:02:43.320Z,46.58
2023-02-07T17:05:10.309Z,46.53
2023-02-07T17:07:38.624Z,46.85
2023-02-07T17:10:19.241Z,46.40
2023-02-07T17:12:46.222Z,46.23
2023-02-07T17:15:13.148Z,46.17
2023-02-07T17:17:40.095Z,46.72
2023-02-07T17:20:20.302Z,46.35
2023-02-07T17:22:48.926Z,46.40
2023-02-07T17:25:17.153Z,46.50
2023-02-07T17:27:44.092Z,46.47
2023-02-07T17:30:16.690Z,46.85
2023-02-07T17:32:43.994Z,46.70
2023-02-07T17:35:10.863Z,46.78
2023-02-07T17:37:38.105Z,46.78
2023-02-07T17:40:26.083Z,46.85
2023-02-07T17:42:53.030Z,46.92
2023-02-07T17:45:20.342Z,46.97
2023-02-07T17:47:47.296Z,46.92
2023-02-07T17:50:18.055Z,46.85
2023-02-07T17:52:45.163Z,46.88
2023-02-07T17:55:13.804Z,47.05
2023-02-07T17:57:41.577Z,47.08
2023-02-07T18:00:16.213Z,47.70
2023-02-07T18:02:44.025Z,46.88
2023-02-07T18:05:12.375Z,46.67
2023-02-07T18:07:39.357Z,47.13
2023-02-07T18:10:09.664Z,46.88
2023-02-07T18:12:38.016Z,47.05
2023-02-07T18:15:08.519Z,47.35
2023-02-07T18:17:36.598Z,47.22
2023-02-07T18:20:05.739Z,47.42
2023-02-07T18:22:32.711Z,47.08
2023-02-07T18:24:59.534Z,47.33
2023-02-07T18:27:26.487Z,47.20
2023-02-07T18:29:54.752Z,47.55
2023-02-07T18:32:21.632Z,47.58
2023-02-07T18:34:48.537Z,47.40
2023-02-07T18:37:15.482Z,47.63
2023-02-07T18:39:42.475Z,47.28
2023-02-07T18:42:09.314Z,47.42
2023-02-07T18:44:36.220Z,47.08
2023-02-07T18:47:04.624Z,47.33
2023-02-07T18:49:33.276Z,46.90
2023-02-07T18:52:00.326Z,47.00
2023-02-07T18:54:27.439Z,46.85
2023-02-07T18:56:54.566Z,47.33
2023-02-07T18:59:23.357Z,47.35
2023-02-07T19:01:53.510Z,47.70
2023-02-07T19:04:22.412Z,47.63
2023-02-07T19:06:50.639Z,47.28
2023-02-07T19:09:19.093Z,47.22
2023-02-07T19:11:45.958Z,47.30
2023-02-07T19:14:15.353Z,47.60
2023-02-07T19:16:43.216Z,47.47
2023-02-07T19:19:11.279Z,47.42
2023-02-07T19:21:39.602Z,47.78
2023-02-07T19:24:09.178Z,47.67
2023-02-07T19:26:36.242Z,47.47
2023-02-07T19:29:05.229Z,47.55
2023-02-07T19:31:32.733Z,47.67
2023-02-07T19:33:59.840Z,47.85
2023-02-07T19:36:27.613Z,47.67
2023-02-07T19:38:55.942Z,47.53
2023-02-07T19:41:24.079Z,47.53
2023-02-07T19:43:51.128Z,48.17
2023-02-07T19:46:19.123Z,47.60
2023-02-07T19:48:47.225Z,48.33
2023-02-07T19:51:16.685Z,48.45
2023-02-07T19:53:45.143Z,47.88
2023-02-07T19:56:14.061Z,48.00
2023-02-07T19:58:44.734Z,47.92
2023-02-07T20:01:12.169Z,48.15
2023-02-07T20:03:39.576Z,47.90
2023-02-07T20:06:11.707Z,47.60
2023-02-07T20:08:40.066Z,48.00
2023-02-07T20:11:09.561Z,48.15
2023-02-07T20:13:39.795Z,47.80
2023-02-07T20:16:09.218Z,47.83
2023-02-07T20:18:36.139Z,48.38
2023-02-07T20:21:10.930Z,48.47
2023-02-07T20:23:39.133Z,47.88
2023-02-07T20:26:07.432Z,48.10
2023-02-07T20:28:34.832Z,48.13
2023-02-07T20:31:06.085Z,47.83
2023-02-07T20:36:00.920Z,47.75
2023-02-07T20:38:27.815Z,47.90
2023-02-07T20:40:57.379Z,48.55
2023-02-07T20:43:24.548Z,48.15
2023-02-07T20:45:51.402Z,48.33
2023-02-07T20:48:19.630Z,48.35
2023-02-07T20:50:46.597Z,48.22
2023-02-07T20:53:13.489Z,48.00
2023-02-07T20:55:40.381Z,48.22
2023-02-07T20:58:07.243Z,48.28
2023-02-07T21:00:34.607Z,48.35
2023-02-07T21:03:01.570Z,48.08
2023-02-07T21:05:29.795Z,47.88
2023-02-07T21:07:56.691Z,47.75
2023-02-07T21:10:23.753Z,48.05
2023-02-07T21:12:50.617Z,47.90
2023-02-07T21:15:17.500Z,48.38
2023-02-07T21:17:44.923Z,47.60
2023-02-07T21:20:12.738Z,48.08
2023-02-07T21:22:41.581Z,47.60
2023-02-07T21:25:08.605Z,47.45
2023-02-07T21:27:35.638Z,47.65
2023-02-07T21:30:02.481Z,47.85
2023-02-07T21:32:29.430Z,47.38
2023-02-07T21:34:56.278Z,47.67
2023-02-07T21:37:24.002Z,47.47
2023-02-07T21:39:52.227Z,47.80
2023-02-07T21:42:19.102Z,47.83
2023-02-07T21:44:45.981Z,48.20
2023-02-07T21:47:12.891Z,47.92
2023-02-07T21:49:39.787Z,47.38
2023-02-07T21:52:06.753Z,47.75
2023-02-07T21:54:33.647Z,47.72
2023-02-07T21:57:02.027Z,48.20
2023-02-07T21:59:29.930Z,48.38
2023-02-07T22:01:58.140Z,48.28
2023-02-07T22:04:25.133Z,47.78
2023-02-07T22:06:52.578Z,48.47
2023-02-07T22:09:22.053Z,48.17
2023-02-07T22:11:49.624Z,48.22
2023-02-07T22:14:18.475Z,48.22
2023-02-07T22:16:46.513Z,48.20
2023-02-07T22:19:17.155Z,48.83
2023-02-07T22:21:44.464Z,48.40
2023-02-07T22:24:13.599Z,48.72
2023-02-07T22:26:41.050Z,48.08
2023-02-07T22:29:09.035Z,48.03
2023-02-07T22:31:39.820Z,48.40
2023-02-07T22:34:08.459Z,48.25
2023-02-07T22:36:38.029Z,48.47
2023-02-07T22:39:06.588Z,47.80
2023-02-07T22:41:33.545Z,48.08
2023-02-07T22:44:03.859Z,48.67
2023-02-07T22:46:31.261Z,48.85
2023-02-07T22:48:59.741Z,48.50
2023-02-07T22:51:29.224Z,48.30
2023-02-07T22:53:57.646Z,49.25
2023-02-07T22:56:25.606Z,48.53
2023-02-07T22:58:52.905Z,49.00
2023-02-07T23:01:21.956Z,49.25
2023-02-07T23:03:49.315Z,48.63
2023-02-07T23:06:18.099Z,48.65
2023-02-07T23:08:45.528Z,48.55
2023-02-07T23:11:14.677Z,48.90
2023-02-07T23:13:42.414Z,48.83
2023-02-07T23:16:11.486Z,48.45
2023-02-07T23:18:38.617Z,48.60
2023-02-07T23:21:08.550Z,48.53
2023-02-07T23:23:37.464Z,48.53
2023-02-07T23:26:07.009Z,48.33
2023-02-07T23:28:34.142Z,48.25
2023-02-07T23:31:01.210Z,48.28
2023-02-07T23:33:28.162Z,48.38
2023-02-07T23:35:55.056Z,48.50
2023-02-07T23:38:21.921Z,48.70
2023-02-07T23:40:50.245Z,48.80
2023-02-07T23:43:17.558Z,48.30
2023-02-07T23:45:44.599Z,48.15
2023-02-07T23:48:11.748Z,48.20
2023-02-07T23:50:38.975Z,48.30
2023-02-07T23:53:06.726Z,47.97
2023-02-07T23:55:33.990Z,47.38
2023-02-07T23:58:02.522Z,48.25
